Time;durP1;ratioP1;P1;durP2;ratioP2;P2;SDS_P1;SDS_P2;PMS_P1;PMS_P2;Temp;Humidity;BMP_temperature;BMP_pressure;BME280_temperature;BME280_humidity;BME280_pressure;Samples;Min_cycle;Max_cycle;Signal;HPM_P1;HPM_P2
2023/12/31 00:00:10;;;;;;;57.33;32.55;;;;;;;4.94;100.00;100490.19;5092396;28;20492;-44
2023/12/31 00:02:39;;;;;;;57.67;32.22;;;;;;;4.95;100.00;100486.63;5076159;28;20529;-43
2023/12/31 00:05:07;;;;;;;56.80;33.10;;;;;;;4.95;100.00;100481.34;5091716;28;20055;-42
2023/12/31 00:07:35;;;;;;;57.35;33.72;;;;;;;4.91;100.00;100477.06;5091974;28;20055;-43
2023/12/31 00:10:07;;;;;;;56.60;34.45;;;;;;;4.82;100.00;100472.06;5092246;28;20436;-43
2023/12/31 00:12:35;;;;;;;59.40;33.35;;;;;;;4.91;100.00;100476.19;5091778;28;20044;-48
2023/12/31 00:15:04;;;;;;;56.63;33.67;;;;;;;4.82;100.00;100472.06;5091961;28;20048;-42
2023/12/31 00:17:32;;;;;;;60.38;33.60;;;;;;;4.91;100.00;100471.78;5091379;28;20044;-43
2023/12/31 00:20:01;;;;;;;56.35;33.15;;;;;;;4.88;100.00;100466.59;5092051;28;20044;-43
2023/12/31 00:22:29;;;;;;;53.92;31.92;;;;;;;4.98;100.00;100468.00;5091869;28;20394;-45
2023/12/31 00:24:58;;;;;;;52.33;33.65;;;;;;;4.94;100.00;100469.03;5091824;28;20052;-42
2023/12/31 00:27:29;;;;;;;57.65;36.05;;;;;;;4.92;100.00;100468.22;5091920;28;20044;-49
2023/12/31 00:29:57;;;;;;;61.55;37.17;;;;;;;4.91;100.00;100471.78;5091665;28;20465;-44
2023/12/31 00:32:25;;;;;;;59.92;38.72;;;;;;;4.82;100.00;100472.06;5092117;28;20052;-43
2023/12/31 00:34:53;;;;;;;63.30;38.88;;;;;;;4.84;100.00;100471.13;5091702;28;20135;-43
2023/12/31 00:37:21;;;;;;;59.13;38.35;;;;;;;4.80;100.00;100471.25;5091950;28;20044;-42
2023/12/31 00:39:50;;;;;;;61.42;38.88;;;;;;;4.75;100.00;100465.28;5091399;28;20052;-42
2023/12/31 00:42:19;;;;;;;65.70;39.20;;;;;;;4.73;100.00;100465.34;5091243;28;20054;-43
2023/12/31 00:44:49;;;;;;;61.20;38.95;;;;;;;4.72;100.00;100457.44;5091111;28;20496;-42
2023/12/31 00:47:17;;;;;;;61.00;39.28;;;;;;;4.70;100.00;100467.19;5091682;28;20131;-43
2023/12/31 00:49:45;;;;;;;61.97;40.58;;;;;;;4.23;100.00;100467.78;5091759;28;20047;-42
2023/12/31 00:52:14;;;;;;;65.85;40.78;;;;;;;4.42;100.00;100473.38;5091884;28;20863;-43
2023/12/31 00:54:42;;;;;;;63.08;40.00;;;;;;;4.17;100.00;100468.00;5092264;28;20075;-43
2023/12/31 00:57:10;;;;;;;69.45;40.85;;;;;;;4.27;100.00;100473.84;5091766;28;20117;-43
2023/12/31 00:59:39;;;;;;;62.83;39.15;;;;;;;4.24;100.00;100474.78;5091640;28;20744;-43
2023/12/31 01:02:08;;;;;;;65.18;40.13;;;;;;;4.24;100.00;100479.22;5092344;28;20048;-43
2023/12/31 01:04:37;;;;;;;63.08;39.20;;;;;;;3.99;100.00;100479.09;5092002;28;20047;-43
2023/12/31 01:07:05;;;;;;;64.13;38.88;;;;;;;3.81;100.00;100483.13;5091676;28;20044;-43
2023/12/31 01:09:34;;;;;;;60.95;38.03;;;;;;;3.78;100.00;100492.94;5091375;28;20040;-43
2023/12/31 01:12:02;;;;;;;65.28;40.22;;;;;;;3.44;100.00;100486.78;5091161;28;20097;-42
2023/12/31 01:14:31;;;;;;;65.57;39.85;;;;;;;3.63;100.00;100484.53;5091572;28;20140;-43
2023/12/31 01:16:59;;;;;;;58.63;37.40;;;;;;;3.70;100.00;100479.94;5091954;28;20125;-43
2023/12/31 01:19:29;;;;;;;64.20;37.83;;;;;;;3.82;100.00;100482.22;5089436;28;20048;-44
2023/12/31 01:21:58;;;;;;;57.38;36.05;;;;;;;3.83;100.00;100481.31;5087402;28;20071;-43
2023/12/31 01:24:26;;;;;;;57.97;37.00;;;;;;;3.93;100.00;100469.56;5090898;28;20492;-41
2023/12/31 01:26:54;;;;;;;61.17;38.35;;;;;;;4.07;100.00;100470.97;5091370;28;20131;-42
2023/12/31 01:29:23;;;;;;;59.47;35.97;;;;;;;4.20;100.00;100482.88;5093300;28;20044;-42
2023/12/31 01:31:53;;;;;;;58.45;36.13;;;;;;;4.24;100.00;100474.78;5095406;28;20097;-43
2023/12/31 01:34:21;;;;;;;56.10;34.30;;;;;;;4.18;100.00;100476.78;5094577;28;20082;-44
2023/12/31 01:36:50;;;;;;;60.10;35.38;;;;;;;4.19;100.00;100475.88;5094867;28;20522;-42
2023/12/31 01:39:19;;;;;;;54.47;34.58;;;;;;;4.12;100.00;100475.16;5094632;28;20050;-42
2023/12/31 01:41:47;;;;;;;55.38;34.58;;;;;;;4.10;100.00;100470.84;5094538;28;20132;-42
2023/12/31 01:44:15;;;;;;;53.00;33.97;;;;;;;4.14;100.00;100472.47;5094677;28;20044;-42
2023/12/31 01:46:44;;;;;;;54.63;34.33;;;;;;;4.20;100.00;100469.66;5094327;28;20044;-42
2023/12/31 01:49:12;;;;;;;57.78;34.72;;;;;;;4.34;100.00;100475.38;5093942;28;20040;-42
2023/12/31 01:51:41;;;;;;;54.80;34.25;;;;;;;4.34;100.00;100466.59;5094610;28;20048;-43
2023/12/31 01:54:11;;;;;;;55.95;34.60;;;;;;;4.35;100.00;100465.69;5094367;28;20075;-42
2023/12/31 01:56:40;;;;;;;56.67;35.75;;;;;;;4.34;100.00;100464.81;5094399;28;20048;-42
2023/12/31 01:59:10;;;;;;;59.72;34.70;;;;;;;4.33;100.00;100460.44;5094083;28;20082;-42
2023/12/31 02:01:40;;;;;;;55.55;34.20;;;;;;;4.24;100.00;100456.31;5094248;28;20057;-43
2023/12/31 02:04:09;;;;;;;58.75;34.13;;;;;;;4.25;100.00;100449.28;5093812;28;20499;-42
2023/12/31 02:06:37;;;;;;;55.70;34.20;;;;;;;4.11;100.00;100454.09;5094144;28;20059;-42
2023/12/31 02:09:06;;;;;;;57.58;34.03;;;;;;;4.14;100.00;100446.94;5093787;28;20051;-42
2023/12/31 02:11:37;;;;;;;58.03;33.17;;;;;;;4.12;100.00;100443.50;5093911;28;20143;-42
2023/12/31 02:14:06;;;;;;;55.92;33.58;;;;;;;4.10;100.00;100452.38;5093801;28;20047;-41
2023/12/31 02:16:34;;;;;;;56.78;33.72;;;;;;;4.20;100.00;100445.91;5093922;28;20044;-43
2023/12/31 02:19:02;;;;;;;57.83;34.35;;;;;;;4.26;100.00;100443.09;5093622;28;20048;-41
2023/12/31 02:21:30;;;;;;;55.10;33.22;;;;;;;4.23;100.00;100445.81;5093860;28;20036;-42
2023/12/31 02:23:59;;;;;;;55.92;33.38;;;;;;;4.20;100.00;100451.19;5093853;28;20801;-42
2023/12/31 02:26:29;;;;;;;57.17;32.00;;;;;;;4.10;100.00;100449.75;5093738;28;20235;-43
2023/12/31 02:28:58;;;;;;;58.10;32.92;;;;;;;4.15;100.00;100442.53;5093762;28;20040;-43
2023/12/31 02:31:26;;;;;;;60.75;33.22;;;;;;;3.99;100.00;100435.09;5093527;28;20411;-41
2023/12/31 02:33:54;;;;;;;55.78;32.08;;;;;;;3.91;100.00;100437.09;5093676;28;20075;-42
2023/12/31 02:36:26;;;;;;;55.78;32.95;;;;;;;3.93;100.00;100432.63;5093439;28;20044;-43
2023/12/31 02:38:54;;;;;;;59.05;32.55;;;;;;;3.96;100.00;100432.56;5093157;28;20048;-42
2023/12/31 02:41:22;;;;;;;54.42;32.15;;;;;;;3.94;100.00;100429.06;5093084;28;20067;-46
2023/12/31 02:43:52;;;;;;;57.60;33.35;;;;;;;3.94;100.00;100428.22;5092829;28;20083;-42
2023/12/31 02:46:21;;;;;;;58.30;31.58;;;;;;;3.94;100.00;100415.88;5093223;28;20044;-43
2023/12/31 02:48:49;;;;;;;51.95;30.63;;;;;;;3.96;100.00;100427.28;5093108;28;20066;-42
2023/12/31 02:51:18;;;;;;;56.85;32.33;;;;;;;3.96;100.00;100422.00;5093159;28;20062;-43
2023/12/31 02:53:46;;;;;;;57.33;31.45;;;;;;;3.91;100.00;100423.91;5092988;28;20051;-43
2023/12/31 02:56:15;;;;;;;58.60;31.70;;;;;;;3.96;100.00;100432.56;5093001;28;20052;-44
2023/12/31 02:58:43;;;;;;;57.13;31.83;;;;;;;4.06;100.00;100427.00;5093007;28;20062;-43
2023/12/31 03:01:13;;;;;;;60.55;33.05;;;;;;;3.73;100.00;100430.59;5092943;28;20052;-43
2023/12/31 03:03:41;;;;;;;57.22;32.30;;;;;;;4.01;100.00;100420.06;5093061;28;20048;-42
2023/12/31 03:06:15;;;;;;;55.55;30.65;;;;;;;4.00;100.00;100423.63;5092914;28;20443;-43
2023/12/31 03:08:43;;;;;;;;;;;;;;;4.09;100.00;100429.53;5093162;28;20500;-41
2023/12/31 03:11:11;;;;;;;54.85;31.40;;;;;;;3.92;100.00;100419.47;5092680;28;19920;-41
2023/12/31 03:13:40;;;;;;;48.97;30.17;;;;;;;4.13;100.00;100415.31;5092620;28;20052;-42
2023/12/31 03:16:08;;;;;;;53.55;30.85;;;;;;;4.17;100.00;100415.19;5092540;28;20074;-42
2023/12/31 03:18:38;;;;;;;55.00;30.58;;;;;;;4.26;100.00;100414.03;5092570;28;20093;-44
2023/12/31 03:21:06;;;;;;;52.35;30.65;;;;;;;4.22;100.00;100412.38;5081227;28;20389;-43
2023/12/31 03:23:34;;;;;;;53.38;31.15;;;;;;;4.26;100.00;100406.97;5092292;28;20051;-43
2023/12/31 03:26:07;;;;;;;48.92;29.40;;;;;;;4.29;100.00;100409.50;5092360;28;20056;-42
2023/12/31 03:28:35;;;;;;;52.27;30.90;;;;;;;4.36;100.00;100404.91;5092443;28;20120;-43
2023/12/31 03:31:04;;;;;;;51.22;30.00;;;;;;;4.35;100.00;100405.81;5092221;28;20105;-42
2023/12/31 03:33:32;;;;;;;55.05;30.88;;;;;;;4.36;100.00;100406.69;5092050;28;20056;-43
2023/12/31 03:36:02;;;;;;;52.75;30.58;;;;;;;4.45;100.00;100407.25;5092273;28;20106;-43
2023/12/31 03:38:31;;;;;;;52.80;29.58;;;;;;;4.46;100.00;100398.41;5092074;28;20462;-43
2023/12/31 03:40:59;;;;;;;47.10;28.35;;;;;;;4.48;100.00;100399.22;5092189;28;20144;-42
2023/12/31 03:43:27;;;;;;;46.85;28.52;;;;;;;4.39;100.00;100399.53;5092268;28;20044;-43
2023/12/31 03:45:56;;;;;;;46.63;28.50;;;;;;;4.33;100.00;100399.69;5092247;28;20101;-44
2023/12/31 03:48:25;;;;;;;53.90;30.67;;;;;;;4.23;100.00;100393.84;5092094;28;20179;-43
2023/12/31 03:50:53;;;;;;;51.10;30.73;;;;;;;3.97;100.00;100392.06;5091256;28;20044;-42
2023/12/31 03:53:23;;;;;;;57.08;31.38;;;;;;;3.96;100.00;100406.16;5091752;28;20076;-42
2023/12/31 03:55:51;;;;;;;55.75;32.17;;;;;;;3.96;100.00;100405.31;5091773;28;20072;-42
2023/12/31 03:58:20;;;;;;;55.60;31.95;;;;;;;3.98;100.00;100404.34;5091393;28;20088;-43
2023/12/31 04:00:48;;;;;;;61.42;33.58;;;;;;;3.84;100.00;100401.22;5091646;28;20055;-42
2023/12/31 04:03:17;;;;;;;57.40;33.90;;;;;;;3.68;100.00;100405.25;5091525;28;20561;-42
2023/12/31 04:05:45;;;;;;;53.38;32.38;;;;;;;3.68;100.00;100394.72;5091946;28;20040;-43
2023/12/31 04:08:14;;;;;;;57.22;32.22;;;;;;;3.57;100.00;100391.50;5091823;28;20048;-47
2023/12/31 04:10:44;;;;;;;57.90;33.53;;;;;;;3.55;100.00;100385.41;5091774;28;20128;-42
2023/12/31 04:13:12;;;;;;;57.28;33.05;;;;;;;3.43;100.00;100384.88;5091768;28;20105;-42
2023/12/31 04:15:40;;;;;;;50.90;30.23;;;;;;;3.29;100.00;100380.91;5091667;28;20078;-42
2023/12/31 04:18:09;;;;;;;56.97;33.40;;;;;;;3.31;100.00;100385.22;5091403;28;20048;-42
2023/12/31 04:20:37;;;;;;;55.15;31.35;;;;;;;3.31;100.00;100385.22;5091572;28;20055;-41
2023/12/31 04:23:06;;;;;;;57.60;33.17;;;;;;;3.37;100.00;100382.38;5091639;28;20048;-42
2023/12/31 04:25:34;;;;;;;57.78;31.58;;;;;;;3.38;100.00;100386.78;5090964;28;20542;-42
2023/12/31 04:28:04;;;;;;;57.28;32.78;;;;;;;3.52;100.00;100382.88;5091502;28;20126;-41
2023/12/31 04:30:33;;;;;;;57.67;33.33;;;;;;;3.30;100.00;100383.50;5091201;28;20585;-43
2023/12/31 04:33:01;;;;;;;56.05;32.53;;;;;;;3.33;100.00;100388.66;5091608;28;20389;-42
2023/12/31 04:35:30;;;;;;;57.45;33.88;;;;;;;3.51;100.00;100381.16;5091198;28;20447;-42
2023/12/31 04:37:59;;;;;;;59.53;34.97;;;;;;;3.53;100.00;100381.97;5091272;28;20510;-45
2023/12/31 04:40:27;;;;;;;61.05;36.30;;;;;;;3.47;100.00;100382.13;5091210;28;20131;-46
2023/12/31 04:42:55;;;;;;;63.30;36.17;;;;;;;3.41;100.00;100386.69;5091367;28;20129;-42
2023/12/31 04:45:25;;;;;;;60.75;36.22;;;;;;;3.53;100.00;100381.97;5091518;28;20404;-42
2023/12/31 04:47:53;;;;;;;58.38;35.70;;;;;;;3.47;100.00;100384.75;5091554;28;20044;-42
2023/12/31 04:50:22;;;;;;;56.50;34.38;;;;;;;3.42;100.00;100385.78;5091525;28;20051;-41
2023/12/31 04:52:50;;;;;;;54.58;33.45;;;;;;;3.40;100.00;100384.97;5091336;28;20135;-44
2023/12/31 04:55:18;;;;;;;54.47;33.47;;;;;;;3.49;100.00;100388.25;5091182;28;20083;-43
2023/12/31 04:57:47;;;;;;;54.55;33.08;;;;;;;3.54;100.00;100391.59;5089690;28;20048;-43
2023/12/31 05:00:18;;;;;;;51.85;33.05;;;;;;;3.54;100.00;100396.88;5090823;28;20036;-43
2023/12/31 05:02:47;;;;;;;53.63;33.70;;;;;;;3.60;100.00;100386.16;5091735;28;20453;-42
2023/12/31 05:05:16;;;;;;;53.63;34.20;;;;;;;3.55;100.00;100388.03;5095114;28;20036;-43
2023/12/31 05:07:44;;;;;;;54.45;34.33;;;;;;;3.34;100.00;100382.50;5094892;28;20129;-42
2023/12/31 05:10:12;;;;;;;53.53;31.30;;;;;;;3.32;100.00;100386.94;5094864;28;20040;-43
2023/12/31 05:12:40;;;;;;;52.20;31.70;;;;;;;3.35;100.00;100383.34;5095244;28;20139;-43
2023/12/31 05:15:09;;;;;;;54.83;32.58;;;;;;;3.37;100.00;100385.03;5095209;28;20144;-41
2023/12/31 05:17:38;;;;;;;53.15;32.72;;;;;;;3.09;100.00;100373.56;5094800;28;20076;-42
2023/12/31 05:20:10;;;;;;;52.03;31.48;;;;;;;3.26;100.00;100376.56;5095070;28;20040;-42
2023/12/31 05:22:38;;;;;;;51.92;31.85;;;;;;;3.20;100.00;100381.16;5093053;28;20055;-41
2023/12/31 05:25:07;;;;;;;51.35;32.35;;;;;;;2.96;100.00;100377.41;5090145;28;20091;-43
2023/12/31 05:27:36;;;;;;;52.35;32.20;;;;;;;2.93;100.00;100372.25;5090163;28;20052;-43
2023/12/31 05:30:04;;;;;;;55.00;33.13;;;;;;;2.58;100.00;100374.00;5094936;28;20164;-43
2023/12/31 05:32:33;;;;;;;54.33;33.67;;;;;;;2.73;100.00;100376.25;5094572;28;20115;-42
2023/12/31 05:35:02;;;;;;;54.05;32.75;;;;;;;2.69;100.00;100376.38;5094427;28;20515;-41
2023/12/31 05:37:32;;;;;;;54.58;33.28;;;;;;;2.77;100.00;100380.53;5094313;28;20097;-44
2023/12/31 05:40:01;;;;;;;54.60;33.80;;;;;;;2.61;100.00;100375.72;5094707;28;20131;-42
2023/12/31 05:42:31;;;;;;;58.72;34.08;;;;;;;2.46;100.00;100371.69;5094502;28;20062;-43
2023/12/31 05:44:59;;;;;;;53.20;33.08;;;;;;;2.41;100.00;100378.84;5094243;28;20047;-42
2023/12/31 05:47:28;;;;;;;57.72;34.78;;;;;;;2.32;100.00;100379.06;5094061;28;20050;-42
2023/12/31 05:50:14;;;;;;;61.08;35.10;;;;;;;2.18;100.00;100382.91;5073834;28;20044;-43
2023/12/31 05:52:44;;;;;;;61.85;34.08;;;;;;;2.14;100.00;100378.63;5073996;28;20134;-43
2023/12/31 05:55:13;;;;;;;62.85;36.85;;;;;;;2.05;100.00;100381.47;5073851;28;20071;-41
2023/12/31 05:57:43;;;;;;;62.00;35.88;;;;;;;2.05;100.00;100389.38;5092990;28;20044;-42
2023/12/31 06:00:12;;;;;;;60.80;35.80;;;;;;;1.99;100.00;100394.75;5094003;28;20044;-42
2023/12/31 06:02:44;;;;;;;59.00;36.28;;;;;;;2.12;100.00;100383.03;5093952;28;20043;-42
2023/12/31 06:05:12;;;;;;;60.05;35.05;;;;;;;2.26;100.00;100382.72;5094012;28;20063;-42
2023/12/31 06:07:40;;;;;;;53.78;33.90;;;;;;;2.49;100.00;100379.50;5093853;28;20048;-42
2023/12/31 06:10:11;;;;;;;57.03;34.22;;;;;;;1.96;100.00;100384.31;5093952;28;20503;-44
2023/12/31 06:12:40;;;;;;;56.13;34.17;;;;;;;2.02;100.00;100376.25;5093878;28;20083;-42
2023/12/31 06:15:11;;;;;;;60.38;35.25;;;;;;;2.09;100.00;100377.84;5093103;28;20048;-42
2023/12/31 06:17:40;;;;;;;60.53;36.50;;;;;;;2.19;100.00;100379.34;5093615;28;20085;-42
2023/12/31 06:20:09;;;;;;;62.90;35.83;;;;;;;2.21;100.00;100377.56;5093583;28;20111;-41
2023/12/31 06:22:37;;;;;;;59.75;35.75;;;;;;;2.26;100.00;100385.34;5093817;28;20060;-43
2023/12/31 06:25:07;;;;;;;56.78;34.08;;;;;;;2.16;100.00;100374.19;5093517;28;20048;-42
2023/12/31 06:27:39;;;;;;;55.17;34.10;;;;;;;2.29;100.00;100372.97;5093181;28;20060;-42
2023/12/31 06:30:08;;;;;;;53.25;32.95;;;;;;;2.20;100.00;100382.84;5093840;28;20088;-43
2023/12/31 06:32:37;;;;;;;61.22;34.33;;;;;;;2.11;100.00;100378.69;5093791;28;20040;-43
2023/12/31 06:35:06;;;;;;;55.25;33.42;;;;;;;2.07;100.00;100368.28;5093472;28;20048;-43
2023/12/31 06:37:34;;;;;;;57.95;34.05;;;;;;;2.19;100.00;100379.34;5093527;28;20051;-44
2023/12/31 06:40:04;;;;;;;57.55;33.47;;;;;;;2.05;100.00;100375.34;5093283;28;20047;-42
2023/12/31 06:42:32;;;;;;;56.60;35.63;;;;;;;2.12;100.00;100372.50;5093361;28;20120;-42
2023/12/31 06:45:02;;;;;;;58.13;36.10;;;;;;;2.13;100.00;100369.00;5093514;28;20134;-43
2023/12/31 06:47:33;;;;;;;56.33;33.60;;;;;;;2.22;100.00;100374.03;5093545;28;20044;-43
2023/12/31 06:50:02;;;;;;;61.35;34.28;;;;;;;2.23;100.00;100372.28;5093091;28;20070;-42
2023/12/31 06:52:31;;;;;;;58.38;34.08;;;;;;;2.26;100.00;100372.19;5093314;28;20194;-42
2023/12/31 06:55:00;;;;;;;53.40;33.08;;;;;;;2.41;100.00;100376.19;5092507;28;20055;-42
2023/12/31 06:57:28;;;;;;;54.47;32.92;;;;;;;2.38;100.00;100378.91;5093012;28;20094;-42
2023/12/31 06:59:56;;;;;;;57.53;33.78;;;;;;;2.29;100.00;100370.34;5092556;28;20408;-42
2023/12/31 07:02:26;;;;;;;54.70;32.58;;;;;;;2.52;100.00;100375.06;5092843;28;20147;-42
2023/12/31 07:04:55;;;;;;;51.58;32.78;;;;;;;2.35;100.00;100371.09;5093007;28;20085;-42
2023/12/31 07:07:23;;;;;;;50.45;31.65;;;;;;;2.42;100.00;100378.81;5093128;28;20100;-42
2023/12/31 07:09:52;;;;;;;54.47;33.35;;;;;;;2.34;100.00;100375.50;5092976;28;20051;-42
2023/12/31 07:12:21;;;;;;;53.10;32.88;;;;;;;2.37;100.00;100374.56;5093078;28;20048;-43
2023/12/31 07:14:49;;;;;;;49.22;31.45;;;;;;;2.35;100.00;100371.09;5092605;28;20066;-43
2023/12/31 07:17:17;;;;;;;50.03;31.60;;;;;;;2.54;100.00;100360.06;5092842;28;20048;-42
2023/12/31 07:19:58;;;;;;;46.55;29.83;;;;;;;2.66;100.00;100361.53;5092672;28;20048;-42
2023/12/31 07:22:26;;;;;;;47.63;30.27;;;;;;;2.57;100.00;100370.53;5092243;28;20044;-47
2023/12/31 07:24:55;;;;;;;45.72;30.27;;;;;;;2.56;100.00;100362.66;5092494;28;20500;-42
2023/12/31 07:27:23;;;;;;;49.83;30.60;;;;;;;2.86;100.00;100361.00;5091665;28;20077;-42
2023/12/31 07:29:51;;;;;;;47.50;30.85;;;;;;;2.83;100.00;100356.69;5092446;28;20044;-43
2023/12/31 07:32:22;;;;;;;44.92;30.23;;;;;;;2.75;100.00;100353.38;5092257;28;20051;-42
2023/12/31 07:34:51;;;;;;;47.05;31.17;;;;;;;3.00;100.00;100347.47;5092335;28;20048;-42
2023/12/31 07:37:21;;;;;;;45.47;30.52;;;;;;;3.24;100.00;100352.03;5092376;28;20051;-43
2023/12/31 07:39:48;;;;;;;47.28;30.65;;;;;;;3.33;100.00;100350.91;5092295;28;20135;-43
2023/12/31 07:42:16;;;;;;;47.80;30.45;;;;;;;3.43;100.00;100352.34;5092197;28;20115;-41
2023/12/31 07:44:45;;;;;;;47.58;31.58;;;;;;;3.59;100.00;100352.78;5092082;28;20050;-42
2023/12/31 07:47:13;;;;;;;48.80;30.83;;;;;;;3.57;100.00;100349.28;5092015;28;20040;-43
2023/12/31 07:49:42;;;;;;;50.00;31.20;;;;;;;3.67;100.00;100348.13;5092160;28;20112;-42
2023/12/31 07:52:10;;;;;;;50.90;31.35;;;;;;;3.67;100.00;100350.78;5091968;28;20044;-42
2023/12/31 07:54:40;;;;;;;47.70;31.00;;;;;;;3.51;100.00;100349.50;5091430;28;20050;-44
2023/12/31 07:57:08;;;;;;;47.72;32.00;;;;;;;3.38;100.00;100344.59;5091975;28;20517;-43
2023/12/31 07:59:38;;;;;;;52.55;32.65;;;;;;;3.37;100.00;100345.47;5092231;28;20052;-43
2023/12/31 08:02:07;;;;;;;55.80;33.92;;;;;;;3.58;100.00;100343.13;5091877;28;20138;-41
2023/12/31 08:04:35;;;;;;;53.65;33.35;;;;;;;3.73;100.00;100342.66;5091906;28;20048;-41
2023/12/31 08:07:03;;;;;;;52.72;32.80;;;;;;;3.61;100.00;100358.88;5092074;28;20132;-43
2023/12/31 08:09:32;;;;;;;55.17;32.80;;;;;;;3.77;100.00;100346.94;5091904;28;20036;-44
2023/12/31 08:12:01;;;;;;;58.47;34.58;;;;;;;3.80;100.00;100349.47;5091552;28;20055;-42
2023/12/31 08:14:30;;;;;;;54.50;32.83;;;;;;;3.78;100.00;100353.09;5089576;28;20044;-42
2023/12/31 08:16:58;;;;;;;59.00;34.10;;;;;;;3.55;100.00;100341.44;5086094;28;20047;-43
2023/12/31 08:19:26;;;;;;;67.43;34.58;;;;;;;3.31;100.00;100343.03;5087046;28;20047;-42
2023/12/31 08:21:55;;;;;;;71.00;35.85;;;;;;;3.47;100.00;100345.22;5087101;28;20040;-42
2023/12/31 08:24:23;;;;;;;66.28;35.50;;;;;;;3.15;100.00;100349.66;5086689;28;20052;-42
2023/12/31 08:26:51;;;;;;;68.80;34.97;;;;;;;3.03;100.00;100336.81;5085779;28;20059;-42
2023/12/31 08:29:21;;;;;;;72.25;35.97;;;;;;;3.03;100.00;100340.31;5090332;28;20089;-42
2023/12/31 08:31:52;;;;;;;73.07;36.30;;;;;;;3.30;100.00;100340.44;5090298;28;20081;-41
2023/12/31 08:34:20;;;;;;;70.55;34.20;;;;;;;3.23;100.00;100352.94;5091628;28;20146;-40
2023/12/31 08:36:49;;;;;;;72.45;36.40;;;;;;;3.31;100.00;100340.41;5089597;28;20085;-42
2023/12/31 08:39:17;;;;;;;79.18;38.05;;;;;;;3.50;100.00;100347.78;5087713;28;20048;-43
2023/12/31 08:41:45;;;;;;;77.97;35.25;;;;;;;3.62;100.00;100350.03;5087122;28;20550;-41
2023/12/31 08:44:14;;;;;;;83.43;37.20;;;;;;;3.54;100.00;100342.34;5086766;28;20139;-41
2023/12/31 08:46:43;;;;;;;100.05;37.97;;;;;;;3.31;100.00;100343.03;5090477;28;20040;-41
2023/12/31 08:49:12;;;;;;;84.10;38.75;;;;;;;3.33;100.00;100346.50;5090959;28;20072;-42
2023/12/31 08:51:40;;;;;;;89.93;39.63;;;;;;;3.24;100.00;100345.88;5090582;28;20403;-42
2023/12/31 08:54:09;;;;;;;88.82;39.92;;;;;;;3.32;100.00;100355.31;5090766;28;20181;-42
2023/12/31 08:56:37;;;;;;;87.03;39.22;;;;;;;3.27;100.00;100353.69;5086886;28;20048;-43
2023/12/31 08:59:06;;;;;;;80.35;39.80;;;;;;;3.41;100.00;100355.03;5089430;28;20136;-42
2023/12/31 09:01:34;;;;;;;88.45;41.65;;;;;;;3.61;100.00;100356.22;5087211;28;20040;-40
2023/12/31 09:04:04;;;;;;;90.28;40.90;;;;;;;3.37;100.00;100352.53;5089904;28;20048;-41
2023/12/31 09:06:32;;;;;;;76.63;39.28;;;;;;;3.40;100.00;100349.81;5089799;28;20043;-41
2023/12/31 09:09:01;;;;;;;89.88;41.95;;;;;;;3.31;100.00;100356.22;5090659;28;20048;-43
2023/12/31 09:11:29;;;;;;;86.35;42.17;;;;;;;3.31;100.00;100355.34;5086823;28;20758;-42
2023/12/31 09:13:57;;;;;;;111.95;43.33;;;;;;;3.43;100.00;100352.34;5088369;28;20497;-42
2023/12/31 09:16:26;;;;;;;109.72;44.60;;;;;;;3.29;100.00;100349.28;5088350;28;20043;-43
2023/12/31 09:18:54;;;;;;;92.68;45.03;;;;;;;3.42;100.00;100343.59;5090148;28;20093;-42
2023/12/31 09:21:24;;;;;;;101.63;45.38;;;;;;;3.38;100.00;100343.72;5090637;28;20071;-42
2023/12/31 09:23:52;;;;;;;99.85;44.28;;;;;;;3.35;100.00;100344.66;5090788;28;20052;-41
2023/12/31 09:26:21;;;;;;;91.72;40.25;;;;;;;3.45;100.00;100334.72;5090520;28;20500;-41
2023/12/31 09:28:50;;;;;;;77.25;38.05;;;;;;;3.50;100.00;100339.88;5090893;28;20044;-43
2023/12/31 09:31:20;;;;;;;92.85;41.08;;;;;;;3.71;100.00;100336.56;5090373;28;20043;-43
2023/12/31 09:33:49;;;;;;;86.85;41.65;;;;;;;3.78;100.00;100322.28;5091464;28;20048;-42
2023/12/31 09:36:17;;;;;;;91.45;43.25;;;;;;;3.98;100.00;100325.16;5088498;28;20040;-44
2023/12/31 09:38:47;;;;;;;84.28;42.30;;;;;;;4.03;100.00;100322.34;5088939;28;20481;-41
2023/12/31 09:41:22;;;;;;;84.13;41.08;;;;;;;3.99;100.00;100321.59;5090414;28;20579;-42
2023/12/31 09:43:52;;;;;;;85.25;39.45;;;;;;;3.87;100.00;100313.22;5089780;28;20584;-42
2023/12/31 09:46:22;;;;;;;74.97;37.35;;;;;;;3.72;100.00;100311.91;5086529;28;20093;-47
2023/12/31 09:48:50;;;;;;;74.32;38.00;;;;;;;4.05;100.00;100315.25;5088870;28;20095;-42
2023/12/31 09:51:19;;;;;;;76.40;38.83;;;;;;;4.19;100.00;100317.44;5093772;28;20054;-43
2023/12/31 09:53:53;;;;;;;73.53;39.25;;;;;;;4.20;100.00;100309.47;5098794;28;20451;-41
2023/12/31 09:56:23;;;;;;;68.53;36.90;;;;;;;4.57;100.00;100292.38;5092815;28;20040;-43
2023/12/31 09:58:52;;;;;;;71.13;36.83;;;;;;;4.40;100.00;100282.41;5100497;28;20531;-41
2023/12/31 10:01:37;;;;;;;71.85;38.55;;;;;;;4.25;100.00;100285.56;5104080;28;20408;-43
2023/12/31 10:04:05;;;;;;;;;;;;;;;4.26;100.00;100292.56;5103946;28;20047;-41
2023/12/31 10:06:40;;;;;;;69.15;36.47;;;;;;;4.25;100.00;100281.16;5094857;28;19950;-41
2023/12/31 10:09:14;;;;;;;72.53;38.50;;;;;;;4.26;100.00;100280.25;5111444;28;20044;-42
2023/12/31 10:11:42;;;;;;;73.20;37.92;;;;;;;4.35;100.00;100265.84;5102121;28;20052;-43
2023/12/31 10:14:11;;;;;;;69.57;37.78;;;;;;;4.32;100.00;100272.09;5094537;28;20553;-42
2023/12/31 10:16:43;;;;;;;71.63;38.65;;;;;;;4.41;100.00;100270.91;5102190;28;20054;-44
2023/12/31 10:19:13;;;;;;;76.90;40.38;;;;;;;4.39;100.00;100270.09;5104543;28;20492;-42
2023/12/31 10:21:42;;;;;;;68.40;38.45;;;;;;;4.62;100.00;100268.44;5092748;28;20040;-41
2023/12/31 10:24:12;;;;;;;77.38;41.33;;;;;;;4.62;100.00;100268.44;5093016;28;20044;-42
2023/12/31 10:26:40;;;;;;;81.18;41.83;;;;;;;4.54;100.00;100266.94;5090055;28;20056;-42
2023/12/31 10:29:11;;;;;;;72.80;40.10;;;;;;;4.81;100.00;100251.84;5087457;28;20122;-43
2023/12/31 10:31:39;;;;;;;76.65;40.22;;;;;;;4.73;100.00;100239.84;5088623;28;20063;-41
2023/12/31 10:34:15;;;;;;;72.85;39.03;;;;;;;4.75;100.00;100225.66;5087868;28;20044;-41
2023/12/31 10:36:45;;;;;;;74.65;38.67;;;;;;;4.66;100.00;100209.28;5088242;28;20162;-42
2023/12/31 10:39:27;;;;;;;77.80;40.95;;;;;;;4.80;100.00;100209.63;5087532;28;20489;-42
2023/12/31 10:41:59;;;;;;;82.00;40.97;;;;;;;4.79;100.00;100205.28;5092307;28;20143;-42
2023/12/31 10:44:27;;;;;;;81.63;41.40;;;;;;;4.89;100.00;100188.16;5093117;28;20083;-42
2023/12/31 10:46:59;;;;;;;78.32;40.53;;;;;;;5.09;100.00;100201.47;5092152;28;20048;-41
2023/12/31 10:49:30;;;;;;;77.88;40.10;;;;;;;5.16;100.00;100191.53;5100357;28;20051;-42
2023/12/31 10:52:02;;;;;;;73.40;41.00;;;;;;;5.21;100.00;100184.28;5093814;28;20047;-41
2023/12/31 10:54:40;;;;;;;87.15;42.45;;;;;;;5.33;100.00;100188.22;5087401;28;20036;-43
2023/12/31 10:57:10;;;;;;;76.15;40.55;;;;;;;5.40;100.00;100181.75;5087304;28;20042;-45
2023/12/31 10:59:41;;;;;;;73.95;37.92;;;;;;;5.22;100.00;100190.44;5087956;28;20048;-41
2023/12/31 11:02:16;;;;;;;71.30;38.97;;;;;;;5.43;100.00;100184.28;5087311;28;20040;-41
2023/12/31 11:04:46;;;;;;;72.93;39.28;;;;;;;5.49;100.00;100173.44;5087487;28;20044;-41
2023/12/31 11:07:16;;;;;;;71.20;39.72;;;;;;;5.52;100.00;100175.13;5086483;28;20048;-42
2023/12/31 11:09:48;;;;;;;76.05;41.25;;;;;;;5.70;100.00;100169.06;5085951;28;20044;-43
2023/12/31 11:12:18;;;;;;;74.28;39.95;;;;;;;5.94;100.00;100164.56;5087058;28;20044;-42
2023/12/31 11:14:50;;;;;;;66.80;39.10;;;;;;;5.79;100.00;100160.75;5087717;28;20448;-43
2023/12/31 11:17:50;;;;;;;68.15;38.40;;;;;;;5.78;100.00;100161.66;5087102;28;20079;-43